Latest Coastal Weather Observations for Sydney Airport

IDN60701

Issued at 2:01 pm EDT Saturday 10 December 2016 (issued every 10 minutes, with the page automatically refreshed every 10 minutes)

About coastal observations | Map of coastal stations | Coastal observations for NSW | Marine services | Other Formats
Station Details ID: 066037 Name: SYDNEY AIRPORT AMO Lat: -33.95 Lon: 151.17 Height: 6.0 m
Data from the previous 72 hours. | See also: Recent months at Sydney Airport
Date/Time
EDT
Temp
°C
Wind Pressure Rain since
9am
mm
Weather Cloud Vis
km
Sea
Height
m
Swell
Dir  Spd
kts
Gust
kts
hPa Trend Height
m
Period
s
Dir
10/01:30pm 21.9 ENE 15 19 1021.3 - 0.0 - Partly cloudy 10 - - - -
10/01:00pm 22.4 E 15 19 1021.5 - 0.0 - Partly cloudy 10 - - - -
10/12:30pm 21.6 E 14 19 1021.8 - 0.0 - Partly cloudy 10 - - - -
10/12:00pm 21.6 ENE 13 17 1021.8 F 0.0 Fine Mostly cloudy 25 - - - -
10/11:30am 21.4 E 11 15 1022.3 - 0.0 - Partly cloudy 10 - - - -
10/11:00am 23.1 ESE 9 14 1022.3 - 0.0 - Partly cloudy 10 - - - -
10/10:30am 22.3 SE 8 13 1022.3 - 0.0 - Partly cloudy 10 - - - -
10/10:00am 20.7 SSE 9 11 1022.6 - 0.0 - Partly cloudy 10 - - - -
10/09:30am 21.5 SE 8 11 1022.7 - 0.0 - Mostly clear 10 - - - -
10/09:00am 20.3 ESE 7 9 1022.6 R 0.0 Haze Partly cloudy 18 - - - -
10/08:30am 19.7 SE 7 8 1022.5 - 0.0 - Mostly clear 10 - - - -
10/08:00am 19.2 SE 8 10 1022.4 - 0.0 - Mostly clear 10 - - - -
10/07:30am 18.0 S 5 7 1022.1 - 0.0 - Mostly clear 10 - - - -
10/07:00am 17.9 WSW 5 6 1021.6 - 0.0 - Partly cloudy 10 - - - -
10/06:30am 18.1 SSE 3 4 1021.1 - 0.0 - Partly cloudy 10 - - - -
10/06:00am 17.3 S 5 6 1020.6 R 0.0 Haze Mostly clear 14 - - - -
10/05:30am 17.0 WSW 4 5 1020.3 - 0.0 - Mostly clear 10 - - - -
10/05:00am 16.5 WSW 6 7 1020.0 - 0.0 - Mostly clear 10 - - - -
10/04:30am 17.4 WNW 4 5 1019.7 - 0.0 - Mostly clear 10 - - - -
10/04:00am 17.7 NW 4 5 1019.6 - 0.0 - Mostly clear 10 - - - -
10/03:30am 18.1 SE 5 6 1019.4 - 0.0 Showers Partly cloudy 10 - - - -
10/03:00am 18.6 SE 7 8 1019.1 R 0.0 Fine Mostly cloudy 25 - - - -
10/02:30am 19.0 SE 7 10 1019.0 - 0.0 - Partly cloudy 10 - - - -
10/02:00am 18.5 SE 7 9 1019.1 - 0.0 - Mostly clear 10 - - - -
10/01:30am 18.9 SE 8 10 1018.9 - 0.0 - Mostly clear 10 - - - -
10/01:00am 18.9 SSE 7 8 1019.0 - 0.0 - Mostly clear 10 - - - -
10/12:30am 19.1 SSE 8 12 1019.2 - 0.0 - Mostly clear 10 - - - -
10/12:00am 19.1 SE 9 10 1019.1 R 0.0 Fine Mostly cloudy 30 - - - -
 
Date/Time
EDT
Temp
°C
Wind Pressure Rain since
9am
mm
Weather Cloud Vis
km
Sea
Height
m
Swell
Dir  Spd
kts
Gust
kts
hPa Trend Height
m
Period
s
Dir
09/11:30pm 19.2 SSE 9 13 1018.9 - 0.0 - Mostly clear 10 - - - -
09/11:00pm 19.1 SSE 9 12 1018.6 - 0.0 - Mostly clear 10 - - - -
09/10:30pm 19.1 SSE 9 12 1018.3 - 0.0 - Mostly clear 10 - - - -
09/10:00pm 19.4 SSE 13 16 1018.0 - 0.0 - Mostly clear 10 - - - -
09/09:30pm 19.3 SSE 14 16 1017.4 - 0.0 - Mostly clear 10 - - - -
09/09:00pm 19.6 SSE 13 16 1016.8 R 0.0 Fine Mostly clear 40 - - - -
09/08:30pm 19.8 SSE 14 16 1016.3 - 0.0 - Mostly clear 10 - - - -
09/08:00pm 20.0 SSE 12 16 1015.7 - 0.0 - Mostly clear 10 - - - -
09/07:30pm 20.4 SSE 15 17 1014.9 - 0.0 - Mostly clear 10 - - - -
09/07:00pm 20.9 SSE 14 17 1014.2 - 0.0 - Mostly clear 10 - - - -
09/06:30pm 21.1 SSE 14 18 1013.5 - 0.0 - Mostly clear 10 - - - -
09/06:00pm 21.6 SE 12 16 1012.7 R 0.0 Fine Mostly clear 40 - - - -
09/05:30pm 21.9 SE 14 17 1012.0 - 0.0 - - 10 - - - -
09/05:00pm 22.4 SE 15 19 1011.5 - 0.0 - - 10 - - - -
09/04:30pm 22.4 SE 15 18 1011.3 - 0.0 - - 10 - - - -
09/04:00pm 22.9 SE 15 18 1010.8 - 0.0 - - 10 - - - -
09/03:30pm 23.0 SE 15 19 1010.3 - 0.0 - - 10 - - - -
09/03:00pm 23.6 SE 19 25 1010.0 R 0.0 Fine Mostly clear 40 - - - -
09/02:30pm 26.2 W 18 26 1009.9 - 0.0 - - 10 - - - -
09/02:12pm 26.4 W 15 25 1010.0 - 0.0 - - 10 - - - -
09/02:00pm 25.4 WSW 16 22 1010.0 - 0.0 - - 10 - - - -
09/01:30pm 24.3 W 19 26 1009.8 - 0.0 - - 10 - - - -
09/01:00pm 25.6 W 16 22 1009.6 - 0.0 - - 10 - - - -
09/12:30pm 24.3 W 18 28 1009.7 - 0.0 - - 10 - - - -
09/12:00pm 24.0 W 22 31 1009.6 R 0.0 Fine Mostly clear 40 - - - -
09/11:48am 23.4 W 21 31 1009.6 - 0.0 - - 10 - - - -
09/11:30am 23.7 WSW 21 29 1009.4 - 0.0 - - 10 - - - -
09/11:00am 23.1 W 23 30 1009.0 - 0.0 - - 10 - - - -
09/10:30am 22.4 W 22 30 1008.7 - 0.0 - - 10 - - - -
09/10:14am 22.7 W 23 33 1008.6 - 0.0 - - 10 - - - -
09/10:00am 22.0 W 23 30 1008.4 - 0.0 - - 10 - - - -
09/09:30am 21.5 W 27 33 1008.4 - 0.0 - - 10 - - - -
09/09:00am 20.4 W 24 31 1008.1 R 0.0 Fine Mostly clear 30 - - - -
09/08:47am 20.6 W 23 34 1008.0 - 0.0 - - 10 - - - -
09/08:30am 20.0 W 24 32 1008.0 - 0.0 - - 10 - - - -
09/08:00am 19.9 W 19 25 1008.1 - 0.0 - - 10 - - - -
09/07:30am 19.2 W 20 28 1007.9 - 0.0 - - 10 - - - -
09/07:17am 19.1 W 19 30 1007.8 - 0.0 - - 10 - - - -
09/07:00am 18.9 W 18 25 1007.4 - 0.0 - - 10 - - - -
09/06:30am 18.5 W 18 24 1006.8 - 0.0 - - 10 - - - -
09/06:08am 18.6 WSW 23 33 1006.5 - 0.0 - - 10 - - - -
09/06:00am 18.6 WSW 25 33 1006.4 R 0.0 Fine Mostly clear 30 - - - -
09/05:30am 18.8 W 21 29 1005.8 - 0.0 - - 10 - - - -
09/05:00am 18.6 WSW 13 17 1005.1 - 0.0 - - 10 - - - -
09/04:30am 18.9 WSW 14 19 1004.5 - 0.0 - - 10 - - - -
09/04:00am 19.2 WSW 17 22 1004.3 - 0.0 - - 10 - - - -
09/03:30am 19.5 WSW 18 23 1003.8 - 0.0 - Partly cloudy 10 - - - -
09/03:00am 20.3 WSW 22 30 1003.3 R 0.0 Fine Partly cloudy 25 - - - -
09/02:46am 20.6 WSW 21 29 1002.9 - 0.0 - Partly cloudy 10 - - - -
09/02:30am 20.7 WSW 15 19 1002.9 - 0.0 - - 10 - - - -
09/02:00am 21.0 W 16 20 1002.1 - 0.0 - - 10 - - - -
09/01:30am 21.3 W 22 29 1001.7 - 0.0 - - 10 - - - -
09/01:00am 21.9 WSW 29 37 1000.6 - 0.0 - - 10 - - - -
09/12:30am 24.3 W 23 29 999.5 - 0.0 - Partly cloudy 10 - - - -
09/12:17am 26.4 W 14 29 999.0 - 0.0 - Partly cloudy 10 - - - -
09/12:00am 26.7 WNW 10 13 998.4 F 0.0 Fine Mostly cloudy 25 - - - -
 
Date/Time
EDT
Temp
°C
Wind Pressure Rain since
9am
mm
Weather Cloud Vis
km
Sea
Height
m
Swell
Dir  Spd
kts
Gust
kts
hPa Trend Height
m
Period
s
Dir
08/11:30pm 27.1 WNW 12 20 998.5 - 0.0 - - 10 - - - -
08/11:00pm 26.7 W 13 22 998.4 - 0.0 - Partly cloudy 10 - - - -
08/10:30pm 26.0 WSW 9 15 999.2 - 0.0 - Mostly clear 10 - - - -
08/10:00pm 24.4 S 7 9 999.0 - 0.0 - Mostly clear 10 - - - -
08/09:30pm 24.9 S 9 12 998.4 - 0.0 Thunderstorm Partly cloudy 10 - - - -
08/09:11pm 26.3 SW 14 22 998.3 - 0.0 Thunder Partly cloudy 10 - - - -
08/09:00pm 25.7 N 12 26 998.3 R 0.0 Distant precip. Mostly cloudy 25 - - - -
08/08:30pm 25.4 NNE 17 21 996.2 - 0.0 - Partly cloudy 10 - - - -
08/08:00pm 25.9 NNE 17 23 996.0 - 0.0 - - 10 - - - -
08/07:30pm 26.8 NNE 17 23 996.0 - 0.0 - - 10 - - - -
08/07:00pm 27.4 NE 22 29 996.3 - 0.0 - - 10 - - - -
08/06:30pm 27.3 NE 24 30 996.1 - 0.0 - - 10 - - - -
08/06:00pm 27.8 NE 26 35 996.2 F 0.0 Fine Mostly clear 25 - - - -
08/05:30pm 28.2 NE 28 36 996.3 - 0.0 - - 10 - - - -
08/05:00pm 27.1 NE 26 35 996.8 - 0.0 - - 10 - - - -
08/04:35pm 27.7 NNE 22 33 997.4 - 0.0 - - 10 - - - -
08/04:30pm 27.5 NE 20 27 997.6 - 0.0 - - 10 - - - -
08/04:00pm 28.0 NE 26 32 997.9 - 0.0 - Partly cloudy 10 - - - -
08/03:30pm 27.7 NE 22 27 998.5 - 0.0 - Partly cloudy 10 - - - -
08/03:00pm 28.8 NE 23 28 999.1 F 0.0 Fine Mostly clear 30 - - - -
08/02:30pm 28.0 NE 22 29 1000.3 - 0.0 - Partly cloudy 10 - - - -
08/02:00pm 28.3 NE 21 26 1001.0 - 0.0 - - 10 - - - -
08/01:30pm 27.5 NE 19 24 1001.6 - 0.0 - - 10 - - - -
08/01:00pm 26.1 NE 17 22 1002.8 - 0.0 - - 10 - - - -
08/12:30pm 27.1 NE 17 20 1003.5 - 0.0 - - 10 - - - -
08/12:00pm 26.0 ENE 15 18 1004.3 F 0.0 Fine Mostly clear 30 - - - -
08/11:30am 25.8 NE 11 15 1005.1 - 0.0 - - 10 - - - -
08/11:00am 25.6 NE 9 14 1005.9 - 0.0 - - 10 - - - -
08/10:30am 25.9 NNE 9 14 1006.5 - 0.0 - - 10 - - - -
08/10:00am 24.2 NE 9 12 1007.1 - 0.0 - Mostly clear 10 - - - -
08/09:30am 25.1 NE 7 11 1007.8 - 0.0 - Mostly clear 10 - - - -
08/09:00am 24.2 NNE 7 9 1008.6 F 0.2 Haze Mostly clear 22 - - - -
08/08:30am 23.5 NE 9 13 1009.1 - 0.2 - Mostly clear 10 - - - -
08/08:00am 23.3 NNE 10 12 1009.5 - 0.2 - Mostly clear 10 - - - -
08/07:30am 22.0 N 10 13 1009.6 - 0.2 - Mostly clear 10 - - - -
08/07:00am 21.7 N 9 12 1009.8 - 0.2 - Mostly cloudy 10 - - - -
08/06:30am 21.5 N 8 12 1010.0 - 0.2 - Mostly cloudy 10 - - - -
08/06:00am 21.3 NNW 8 10 1010.1 F 0.2 Fine Mostly cloudy 25 - - - -
08/05:30am 21.1 NNW 9 11 1010.1 - 0.2 - Mostly clear 10 - - - -
08/05:00am 21.3 N 9 11 1010.1 - 0.2 - Mostly clear 10 - - - -
08/04:30am 21.2 N 6 7 1010.4 - 0.2 - Mostly clear 10 - - - -
08/04:00am 21.2 NNE 9 10 1010.6 - 0.2 - Mostly clear 10 - - - -
08/03:30am 21.1 N 10 15 1010.9 - 0.2 - Mostly clear 10 - - - -
08/03:00am 21.4 NNE 11 12 1011.4 F 0.2 Fine Mostly cloudy 25 - - - -
08/02:30am 21.2 NNE 11 15 1011.9 - 0.2 - Mostly clear 10 - - - -
08/02:00am 21.2 N 12 16 1012.2 - 0.2 - Mostly clear 10 - - - -
08/01:30am 21.1 N 8 10 1012.5 - 0.2 - Mostly clear 10 - - - -
08/01:00am 21.3 NNE 13 17 1012.9 - 0.2 - Partly cloudy 10 - - - -
08/12:30am 21.5 NNE 13 17 1013.3 - 0.2 - Partly cloudy 10 - - - -
08/12:00am 21.9 NNE 17 20 1013.7 F 0.2 Fine Mostly cloudy 25 - - - -
 
Date/Time
EDT
Temp
°C
Wind Pressure Rain since
9am
mm
Weather Cloud Vis
km
Sea
Height
m
Swell
Dir  Spd
kts
Gust
kts
hPa Trend Height
m
Period
s
Dir
07/11:30pm 22.1 NNE 16 18 1014.0 - 0.2 - Partly cloudy 10 - - - -
07/11:00pm 22.1 NNE 12 18 1014.3 - 0.2 - Mostly clear 10 - - - -
07/10:30pm 22.1 NE 11 14 1014.5 - 0.2 - Mostly clear 10 - - - -
07/10:00pm 21.7 NE 11 16 1014.4 - 0.2 - Mostly clear 10 - - - -
07/09:30pm 22.1 NE 12 17 1014.2 - 0.2 - Mostly clear 10 - - - -
07/09:00pm 21.9 NE 12 17 1014.3 F 0.2 Fine Mostly cloudy 25 - - - -
07/08:30pm 22.3 NE 13 18 1014.1 - 0.2 - Partly cloudy 10 - - - -
07/08:00pm 22.6 NE 14 18 1014.0 - 0.2 - Mostly clear 10 - - - -
07/07:30pm 22.1 NE 13 17 1014.0 - 0.2 - Mostly clear 10 - - - -
07/07:00pm 22.4 ENE 16 20 1014.0 - 0.2 - Mostly clear 10 - - - -
07/06:30pm 22.0 ENE 15 19 1013.8 - 0.2 - Mostly clear 10 - - - -
07/06:00pm 22.7 NE 16 19 1013.6 F 0.2 Fine Mostly cloudy 25 - - - -
07/05:30pm 22.6 ENE 14 18 1013.6 - 0.2 - Mostly cloudy 10 - - - -
07/05:00pm 23.2 E 15 18 1013.7 - 0.2 - Mostly cloudy 10 - - - -
07/04:30pm 23.8 ENE 14 17 1013.9 - 0.2 - Mostly clear 10 - - - -
07/04:00pm 23.4 E 13 17 1013.8 - 0.2 - Mostly clear 10 - - - -
07/03:30pm 24.5 E 14 18 1014.1 - 0.2 - Mostly clear 10 - - - -
07/03:00pm 23.8 E 13 16 1014.4 R 0.2 Fine Partly cloudy 25 - - - -
07/02:30pm 23.7 E 11 14 1014.7 - 0.2 - Partly cloudy 10 - - - -

Other Formats:

Comma delimited format used in spreadsheet applications
http://www.bom.gov.au/fwo/IDN60701/IDN60701.94767.axf

JavaScript Object Notation format (JSON) in row-major order
http://www.bom.gov.au/fwo/IDN60701/IDN60701.94767.json